Terminal Aerodrome Forecast
Issued by NWS

Home | Current Version | Previous Version | Text Only | Print | Product List | Glossary On
Versions: 1 2 3 4 5 6 7 8 9 10 11 12 13 14 15 16
000
FTUS41 KPHI 282335
TAFMIV
TAF
KMIV 282335Z 2900/2924 VRB03KT P6SM SCT250
     FM290500 33003KT 5SM BR SKC
     FM291200 05005KT P6SM SCT040
     FM291600 12007KT P6SM FEW050=

USA.gov is the U.S. government's official web portal to all federal, state and local government web resources and services.